createdAt,value
2018-06-12T00:01:57.720Z,11.22
2018-06-12T00:04:26.862Z,10.50
2018-06-12T00:06:55.972Z,10.15
2018-06-12T00:09:24.874Z,11.35
2018-06-12T00:11:53.774Z,11.65
2018-06-12T00:14:22.666Z,11.33
2018-06-12T00:16:51.579Z,11.25
2018-06-12T00:19:20.486Z,10.60
2018-06-12T00:21:49.399Z,11.00
2018-06-12T00:24:18.326Z,11.75
2018-06-12T00:26:47.222Z,12.33
2018-06-12T00:29:16.137Z,12.45
2018-06-12T00:31:45.040Z,11.25
2018-06-12T00:34:13.958Z,13.80
2018-06-12T00:36:42.845Z,14.05
2018-06-12T00:39:11.754Z,12.07
2018-06-12T00:41:40.675Z,13.20
2018-06-12T00:44:09.572Z,12.25
2018-06-12T00:46:38.483Z,12.60
2018-06-12T00:49:07.386Z,12.90
2018-06-12T00:51:36.286Z,11.70
2018-06-12T00:54:05.226Z,13.45
2018-06-12T00:56:45.566Z,12.73
2018-06-12T00:59:14.466Z,13.25
2018-06-12T01:01:43.349Z,13.50
2018-06-12T01:04:12.262Z,14.68
2018-06-12T01:06:41.175Z,14.95
2018-06-12T01:09:10.087Z,17.20
2018-06-12T01:11:39.003Z,15.95
2018-06-12T01:14:07.901Z,15.20
2018-06-12T01:16:36.818Z,15.32
2018-06-12T01:19:05.810Z,17.07
2018-06-12T01:21:34.701Z,19.17
2018-06-12T01:24:03.644Z,20.35
2018-06-12T01:26:32.554Z,16.90
2018-06-12T01:29:01.458Z,20.15
2018-06-12T01:31:30.349Z,22.15
2018-06-12T01:33:59.269Z,22.60
2018-06-12T01:36:28.162Z,24.05
2018-06-12T01:38:57.074Z,22.77
2018-06-12T01:41:25.983Z,25.65
2018-06-12T01:43:54.992Z,25.32
2018-06-12T01:46:23.882Z,23.57
2018-06-12T01:48:52.774Z,25.15
2018-06-12T01:51:21.662Z,27.42
2018-06-12T01:53:50.574Z,26.10
2018-06-12T01:56:19.454Z,27.80
2018-06-12T01:58:48.410Z,27.67
2018-06-12T02:01:17.332Z,29.98
2018-06-12T02:03:46.230Z,29.18
2018-06-12T02:06:15.106Z,27.13
2018-06-12T02:08:44.023Z,27.17
2018-06-12T02:11:12.911Z,28.95
2018-06-12T02:13:41.814Z,27.17
2018-06-12T02:16:10.726Z,25.37
2018-06-12T02:18:39.630Z,25.50
2018-06-12T02:21:08.518Z,25.43
2018-06-12T02:23:37.447Z,23.47
2018-06-12T02:26:06.021Z,22.98
2018-06-12T02:28:34.834Z,22.25
2018-06-12T02:31:03.749Z,21.07
2018-06-12T02:33:32.651Z,20.60
2018-06-12T02:36:01.563Z,18.40
2018-06-12T02:38:30.480Z,18.92
2018-06-12T02:40:59.383Z,15.80
2018-06-12T02:43:28.280Z,14.35
2018-06-12T02:45:57.178Z,13.48
2018-06-12T02:48:26.095Z,12.75
2018-06-12T02:50:54.999Z,10.50
2018-06-12T02:53:23.904Z,9.70
2018-06-12T02:55:52.796Z,9.53
2018-06-12T02:58:21.687Z,10.45
2018-06-12T03:00:50.570Z,10.80
2018-06-12T03:03:19.466Z,9.68
2018-06-12T03:05:48.359Z,10.43
2018-06-12T03:08:17.280Z,11.53
2018-06-12T03:10:46.171Z,11.15
2018-06-12T03:13:15.065Z,11.03
2018-06-12T03:15:43.948Z,10.65
2018-06-12T03:18:12.846Z,10.35
2018-06-12T03:20:45.447Z,11.53
2018-06-12T03:23:14.362Z,12.80
2018-06-12T03:25:43.240Z,12.05
2018-06-12T03:28:12.179Z,12.28
2018-06-12T03:30:41.067Z,11.90
2018-06-12T03:33:09.978Z,12.47
2018-06-12T03:35:38.894Z,13.75
2018-06-12T03:38:07.798Z,12.28
2018-06-12T03:40:36.719Z,12.15
2018-06-12T03:43:05.599Z,13.13
2018-06-12T03:45:34.535Z,12.70
2018-06-12T03:48:03.457Z,12.50
2018-06-12T03:50:32.362Z,14.35
2018-06-12T03:53:01.270Z,12.85
2018-06-12T03:55:30.205Z,13.55
2018-06-12T03:57:59.171Z,14.58
2018-06-12T04:00:28.075Z,15.35
2018-06-12T04:02:56.954Z,14.00
2018-06-12T04:05:25.846Z,15.30
2018-06-12T04:07:54.752Z,13.78
2018-06-12T04:10:23.631Z,12.15
2018-06-12T04:12:52.523Z,11.60
2018-06-12T04:15:21.426Z,10.90
2018-06-12T04:17:50.340Z,9.45
2018-06-12T04:20:19.218Z,10.50
2018-06-12T04:22:48.116Z,10.98
2018-06-12T04:25:16.995Z,10.50
2018-06-12T04:27:45.595Z,10.05
2018-06-12T04:30:14.395Z,10.05
2018-06-12T04:32:43.291Z,9.90
2018-06-12T04:35:12.200Z,9.20
2018-06-12T04:37:40.798Z,10.25
2018-06-12T04:40:09.591Z,9.60
2018-06-12T04:42:38.577Z,9.68
2018-06-12T04:45:07.497Z,10.82
2018-06-12T04:47:36.390Z,9.20
2018-06-12T04:50:05.359Z,8.70
2018-06-12T04:52:34.238Z,8.65
2018-06-12T04:55:03.158Z,8.60
2018-06-12T04:57:32.390Z,8.83
2018-06-12T05:00:01.353Z,8.05
2018-06-12T05:02:30.215Z,9.20
2018-06-12T05:04:59.176Z,9.93
2018-06-12T05:07:28.222Z,8.20
2018-06-12T05:09:57.114Z,10.88
2018-06-12T05:12:26.028Z,10.20
2018-06-12T05:14:54.934Z,8.18
2018-06-12T05:17:23.822Z,8.28
2018-06-12T05:19:52.804Z,7.60
2018-06-12T05:22:21.702Z,8.50
2018-06-12T05:24:50.729Z,8.78
2018-06-12T05:27:19.594Z,9.23
2018-06-12T05:29:48.506Z,7.08
2018-06-12T05:32:17.409Z,8.13
2018-06-12T05:34:46.339Z,7.90
2018-06-12T05:37:15.227Z,8.28
2018-06-12T05:39:44.145Z,8.25
2018-06-12T05:42:13.051Z,8.35
2018-06-12T05:44:42.034Z,7.80
2018-06-12T05:47:10.926Z,8.38
2018-06-12T05:49:39.522Z,7.35
2018-06-12T05:52:08.323Z,8.23
2018-06-12T05:54:37.206Z,8.60
2018-06-12T05:57:06.118Z,7.72
2018-06-12T05:59:35.038Z,8.53
2018-06-12T06:02:04.055Z,7.58
2018-06-12T06:04:32.978Z,8.50
2018-06-12T06:07:01.876Z,9.03
2018-06-12T06:09:30.853Z,7.50
2018-06-12T06:11:59.755Z,7.60
2018-06-12T06:14:28.638Z,7.53
2018-06-12T06:16:57.531Z,6.90
2018-06-12T06:19:26.439Z,7.05
2018-06-12T06:21:55.334Z,7.60
2018-06-12T06:24:24.282Z,6.45
2018-06-12T06:26:53.176Z,7.17
2018-06-12T06:29:22.059Z,6.75
2018-06-12T06:31:50.940Z,6.97
2018-06-12T06:34:19.818Z,7.37
2018-06-12T06:36:48.722Z,6.85
2018-06-12T06:39:17.919Z,6.92
2018-06-12T06:41:46.806Z,7.37
2018-06-12T06:44:15.697Z,7.22
2018-06-12T06:46:44.585Z,6.83
2018-06-12T06:49:13.483Z,7.08
2018-06-12T06:51:42.370Z,6.83
2018-06-12T06:54:11.251Z,8.43
2018-06-12T06:56:40.154Z,7.62
2018-06-12T06:59:09.047Z,7.33
2018-06-12T07:01:37.938Z,7.62
2018-06-12T07:04:06.843Z,6.80
2018-06-12T07:06:35.454Z,8.68
2018-06-12T07:09:07.242Z,7.10
2018-06-12T07:11:36.165Z,6.97
2018-06-12T07:14:05.134Z,7.65
2018-06-12T07:16:34.047Z,7.60
2018-06-12T07:19:02.926Z,7.17
2018-06-12T07:21:31.542Z,8.03
2018-06-12T07:24:00.335Z,6.90
2018-06-12T07:26:29.264Z,7.47
2018-06-12T07:28:58.148Z,6.37
2018-06-12T07:31:27.040Z,7.78
2018-06-12T07:33:55.630Z,7.78
2018-06-12T07:36:24.458Z,7.90
2018-06-12T07:38:53.330Z,7.47
2018-06-12T07:41:23.030Z,7.25
2018-06-12T07:43:51.958Z,7.28
2018-06-12T07:46:20.842Z,6.90
2018-06-12T07:48:49.758Z,6.85
2018-06-12T07:51:18.626Z,7.15
2018-06-12T07:53:47.536Z,6.22
2018-06-12T07:56:16.414Z,6.47
2018-06-12T07:58:45.314Z,6.70
2018-06-12T08:01:14.203Z,7.28
2018-06-12T08:03:42.818Z,7.60
2018-06-12T08:06:11.599Z,8.18
2018-06-12T08:08:40.506Z,6.33
2018-06-12T08:11:09.392Z,6.60
2018-06-12T08:13:38.334Z,5.42
2018-06-12T08:16:07.250Z,6.37
2018-06-12T08:18:36.162Z,7.00
2018-06-12T08:21:05.046Z,6.67
2018-06-12T08:23:33.947Z,6.40
2018-06-12T08:26:05.962Z,6.75
2018-06-12T08:28:34.861Z,7.15
2018-06-12T08:31:03.778Z,6.35
2018-06-12T08:33:32.682Z,7.40
2018-06-12T08:36:01.611Z,6.17
2018-06-12T08:38:30.519Z,6.15
2018-06-12T08:40:59.414Z,6.72
2018-06-12T08:43:28.315Z,7.72
2018-06-12T08:45:57.235Z,6.80
2018-06-12T08:48:26.133Z,6.65
2018-06-12T08:50:55.005Z,7.40
2018-06-12T08:53:23.899Z,7.10
2018-06-12T08:55:52.795Z,7.17
2018-06-12T08:58:21.694Z,7.90
2018-06-12T09:00:50.591Z,7.20
2018-06-12T09:03:19.478Z,7.55
2018-06-12T09:05:48.356Z,6.90
2018-06-12T09:08:17.255Z,7.77
2018-06-12T09:10:46.135Z,7.95
2018-06-12T09:13:15.046Z,7.60
2018-06-12T09:15:43.930Z,8.07
2018-06-12T09:18:12.822Z,7.50
2018-06-12T09:20:41.707Z,7.97
2018-06-12T09:23:10.594Z,7.55
2018-06-12T09:25:39.478Z,7.40
2018-06-12T09:28:08.379Z,7.50
2018-06-12T09:30:37.263Z,6.70
2018-06-12T09:33:06.250Z,7.70
2018-06-12T09:35:35.146Z,8.10
2018-06-12T09:38:04.058Z,7.95
2018-06-12T09:40:33.126Z,8.33
2018-06-12T09:43:02.294Z,8.03
2018-06-12T09:45:31.239Z,6.85
2018-06-12T09:48:01.079Z,7.72
2018-06-12T09:50:29.974Z,7.50
2018-06-12T09:52:58.867Z,6.65
2018-06-12T09:55:27.759Z,7.67
2018-06-12T09:57:56.648Z,7.90
2018-06-12T10:01:33.498Z,7.27
2018-06-12T10:04:02.422Z,8.53
2018-06-12T10:06:31.302Z,6.40
2018-06-12T10:09:00.206Z,8.17
2018-06-12T10:11:29.118Z,7.70
2018-06-12T10:13:58.024Z,7.50
2018-06-12T10:16:27.030Z,7.47
2018-06-12T10:18:55.981Z,7.03
2018-06-12T10:21:24.832Z,6.83
2018-06-12T10:23:53.745Z,7.47
2018-06-12T10:26:22.613Z,8.00
2018-06-12T10:28:51.497Z,7.27
2018-06-12T10:31:20.387Z,8.30
2018-06-12T10:33:49.279Z,7.57
2018-06-12T10:36:18.630Z,8.10
2018-06-12T10:38:47.527Z,6.97
2018-06-12T10:41:16.800Z,7.20
2018-06-12T10:43:45.745Z,7.57
2018-06-12T10:46:14.607Z,7.03
2018-06-12T10:48:43.514Z,7.80
2018-06-12T10:51:12.399Z,7.53
2018-06-12T10:53:41.299Z,7.03
2018-06-12T10:56:10.182Z,7.03
2018-06-12T10:58:39.087Z,7.90
2018-06-12T11:01:08.019Z,8.00
2018-06-12T11:03:37.063Z,7.40
2018-06-12T11:06:05.903Z,6.93
2018-06-12T11:08:34.797Z,6.50
2018-06-12T11:11:03.723Z,6.90
2018-06-12T11:13:32.626Z,9.13
2018-06-12T11:16:01.529Z,7.40
2018-06-12T11:18:30.398Z,6.83
2018-06-12T11:20:59.314Z,7.70
2018-06-12T11:23:28.191Z,7.00
2018-06-12T11:25:57.087Z,7.83
2018-06-12T11:28:25.962Z,7.23
2018-06-12T11:30:54.866Z,8.33
2018-06-12T11:33:23.755Z,6.53
2018-06-12T11:35:52.345Z,7.20
2018-06-12T11:38:21.170Z,7.67
2018-06-12T11:40:50.066Z,8.33
2018-06-12T11:43:18.948Z,6.47
2018-06-12T11:45:47.850Z,7.73
2018-06-12T11:48:16.758Z,7.57
2018-06-12T11:50:45.652Z,6.37
2018-06-12T11:53:14.563Z,6.60
2018-06-12T11:55:43.164Z,6.17
2018-06-12T11:58:11.977Z,6.37
2018-06-12T12:00:40.874Z,6.70
2018-06-12T12:03:09.764Z,6.70
2018-06-12T12:05:38.372Z,7.13
2018-06-12T12:08:07.158Z,6.83
2018-06-12T12:10:36.066Z,7.53
2018-06-12T12:13:05.027Z,6.20
2018-06-12T12:15:33.965Z,7.00
2018-06-12T12:18:02.889Z,7.47
2018-06-12T12:20:31.787Z,6.90
2018-06-12T12:23:00.666Z,6.93
2018-06-12T12:25:29.573Z,7.13
2018-06-12T12:27:58.430Z,6.50
2018-06-12T12:30:27.347Z,7.07
2018-06-12T12:32:56.323Z,6.67
2018-06-12T12:35:25.224Z,6.73
2018-06-12T12:37:54.078Z,7.20
2018-06-12T12:40:22.982Z,6.50
2018-06-12T12:42:51.894Z,6.17
2018-06-12T12:45:20.795Z,6.73
2018-06-12T12:47:49.671Z,6.83
2018-06-12T12:50:18.569Z,6.70
2018-06-12T12:52:47.463Z,7.83
2018-06-12T12:55:16.430Z,7.10
2018-06-12T12:57:45.327Z,6.00
2018-06-12T13:00:14.227Z,7.20
2018-06-12T13:02:43.106Z,6.47
2018-06-12T13:05:12.030Z,7.13
2018-06-12T13:07:40.930Z,6.50
2018-06-12T13:10:09.865Z,7.80
2018-06-12T13:12:38.766Z,7.70
2018-06-12T13:15:07.696Z,6.47
2018-06-12T13:17:36.594Z,7.23
2018-06-12T13:20:05.558Z,9.15
2018-06-12T13:22:34.450Z,8.37
2018-06-12T13:25:03.394Z,9.30
2018-06-12T13:27:32.394Z,7.83
2018-06-12T13:30:01.302Z,9.63
2018-06-12T13:32:30.211Z,8.13
2018-06-12T13:34:59.078Z,8.27
2018-06-12T13:37:27.971Z,8.23
2018-06-12T13:39:56.854Z,8.70
2018-06-12T13:42:25.758Z,7.73
2018-06-12T13:44:54.646Z,7.20
2018-06-12T13:47:23.539Z,7.60
2018-06-12T13:49:52.424Z,7.00
2018-06-12T13:52:21.306Z,7.27
2018-06-12T13:54:50.213Z,7.13
2018-06-12T13:57:19.090Z,7.03
2018-06-12T13:59:47.994Z,6.20
2018-06-12T14:02:16.886Z,6.77
2018-06-12T14:04:45.846Z,7.10
2018-06-12T14:07:14.746Z,7.80
2018-06-12T14:09:43.626Z,8.10
2018-06-12T14:12:12.535Z,7.17
2018-06-12T14:14:41.411Z,6.20
2018-06-12T14:17:10.316Z,7.07
2018-06-12T14:19:39.198Z,7.60
2018-06-12T14:22:08.091Z,7.80
2018-06-12T14:24:36.996Z,6.67
2018-06-12T14:27:05.901Z,6.80
2018-06-12T14:29:34.795Z,7.07
2018-06-12T14:32:03.785Z,6.60
2018-06-12T14:34:32.690Z,6.43
2018-06-12T14:37:01.575Z,7.37
2018-06-12T14:39:30.481Z,7.27
2018-06-12T14:41:59.410Z,7.10
2018-06-12T14:44:28.302Z,6.50
2018-06-12T14:46:57.210Z,6.27
2018-06-12T14:49:26.162Z,7.20
2018-06-12T14:51:55.046Z,7.70
2018-06-12T14:54:23.942Z,8.17
2018-06-12T14:56:52.875Z,8.28
2018-06-12T14:59:21.759Z,8.23
2018-06-12T15:01:50.658Z,9.17
2018-06-12T15:04:19.602Z,8.63
2018-06-12T15:06:48.518Z,7.73
2018-06-12T15:09:17.443Z,8.63
2018-06-12T15:11:46.734Z,9.40
2018-06-12T15:14:15.622Z,9.43
2018-06-12T15:16:44.527Z,8.50
2018-06-12T15:19:13.459Z,10.17
2018-06-12T15:21:42.363Z,9.87
2018-06-12T15:24:11.262Z,10.40
2018-06-12T15:26:40.199Z,9.80
2018-06-12T15:29:09.118Z,11.10
2018-06-12T15:31:38.027Z,10.07
2018-06-12T15:34:06.963Z,12.07
2018-06-12T15:36:35.858Z,12.80
2018-06-12T15:39:07.437Z,11.50
2018-06-12T15:41:37.068Z,11.17
2018-06-12T15:44:06.074Z,10.10
2018-06-12T15:46:35.012Z,10.90
2018-06-12T15:49:03.939Z,9.67
2018-06-12T15:51:32.891Z,10.37
2018-06-12T15:54:01.840Z,10.10
2018-06-12T15:56:30.746Z,11.23
2018-06-12T15:58:59.633Z,11.03
2018-06-12T16:01:28.542Z,10.57
2018-06-12T16:03:57.431Z,11.33
2018-06-12T16:06:26.351Z,11.07
2018-06-12T16:08:55.266Z,9.87
2018-06-12T16:11:24.318Z,9.80
2018-06-12T16:13:53.211Z,9.40
2018-06-12T16:16:22.123Z,10.70
2018-06-12T16:18:52.152Z,10.00
2018-06-12T16:21:21.047Z,9.90
2018-06-12T16:23:49.932Z,10.40
2018-06-12T16:26:18.846Z,9.93
2018-06-12T16:28:47.795Z,9.90
2018-06-12T16:31:16.682Z,9.20
2018-06-12T16:33:45.591Z,10.67
2018-06-12T16:36:14.487Z,9.47
2018-06-12T16:38:43.391Z,10.07
2018-06-12T16:41:12.337Z,10.93
2018-06-12T16:43:41.281Z,9.77
2018-06-12T16:46:10.204Z,10.10
2018-06-12T16:48:39.190Z,10.73
2018-06-12T16:51:08.091Z,10.40
2018-06-12T16:53:37.027Z,11.33
2018-06-12T16:56:05.967Z,11.03
2018-06-12T16:58:34.927Z,10.50
2018-06-12T17:01:03.874Z,11.40
2018-06-12T17:03:32.767Z,10.17
2018-06-12T17:06:01.664Z,11.50
2018-06-12T17:08:30.610Z,11.25
2018-06-12T17:10:59.534Z,11.08
2018-06-12T17:13:28.443Z,12.00
2018-06-12T17:15:57.339Z,11.35
2018-06-12T17:18:26.254Z,12.13
2018-06-12T17:20:55.139Z,10.85
2018-06-12T17:23:24.098Z,12.47
2018-06-12T17:25:52.990Z,13.03
2018-06-12T17:28:21.894Z,12.35
2018-06-12T17:30:50.802Z,12.45
2018-06-12T17:33:19.714Z,13.27
2018-06-12T17:35:48.631Z,14.70
2018-06-12T17:38:17.526Z,14.93
2018-06-12T17:40:46.115Z,13.70
2018-06-12T17:43:14.945Z,14.28
2018-06-12T17:45:43.826Z,14.20
2018-06-12T17:48:12.719Z,14.90
2018-06-12T17:50:41.314Z,15.18
2018-06-12T17:53:10.142Z,14.68
2018-06-12T17:55:41.098Z,15.10
2018-06-12T17:58:10.038Z,15.00
2018-06-12T18:00:39.037Z,14.63
2018-06-12T18:03:08.127Z,15.32
2018-06-12T18:05:37.014Z,14.93
2018-06-12T18:08:05.938Z,15.00
2018-06-12T18:10:34.931Z,14.65
2018-06-12T18:13:03.534Z,14.28
2018-06-12T18:15:32.371Z,16.05
2018-06-12T18:18:01.279Z,16.37
2018-06-12T18:20:30.383Z,15.55
2018-06-12T18:22:59.284Z,15.80
2018-06-12T18:25:28.201Z,15.30
2018-06-12T18:27:57.089Z,16.32
2018-06-12T18:30:25.994Z,15.45
2018-06-12T18:32:54.866Z,16.32
2018-06-12T18:35:23.916Z,15.80
2018-06-12T18:37:52.891Z,15.08
2018-06-12T18:40:21.846Z,14.47
2018-06-12T18:42:50.739Z,15.38
2018-06-12T18:45:19.646Z,15.45
2018-06-12T18:47:48.551Z,14.95
2018-06-12T18:50:17.455Z,14.33
2018-06-12T18:52:46.347Z,15.30
2018-06-12T18:55:15.249Z,14.30
2018-06-12T18:57:44.142Z,15.43
2018-06-12T19:00:13.047Z,14.47
2018-06-12T19:02:42.121Z,14.75
2018-06-12T19:05:11.054Z,15.45
2018-06-12T19:07:39.978Z,13.28
2018-06-12T19:10:08.894Z,13.35
2018-06-12T19:12:37.796Z,12.93
2018-06-12T19:15:06.714Z,13.83
2018-06-12T19:17:35.745Z,14.35
2018-06-12T19:20:04.693Z,13.50
2018-06-12T19:22:33.607Z,13.65
2018-06-12T19:25:02.612Z,11.90
2018-06-12T19:27:31.511Z,12.93
2018-06-12T19:30:00.415Z,12.90
2018-06-12T19:32:29.340Z,12.33
2018-06-12T19:34:58.256Z,12.40
2018-06-12T19:37:26.845Z,11.80
2018-06-12T19:39:55.654Z,12.90
2018-06-12T19:42:24.578Z,10.30
2018-06-12T19:44:53.488Z,11.63
2018-06-12T19:47:22.455Z,11.28
2018-06-12T19:49:51.355Z,12.25
2018-06-12T19:52:20.315Z,11.57
2018-06-12T19:54:49.324Z,12.70
2018-06-12T19:57:18.219Z,11.93
2018-06-12T19:59:47.130Z,11.90
2018-06-12T20:02:16.036Z,13.13
2018-06-12T20:04:45.069Z,12.60
2018-06-12T20:07:13.998Z,12.03
2018-06-12T20:09:42.612Z,12.50
2018-06-12T20:12:11.412Z,11.78
2018-06-12T20:14:40.333Z,12.50
2018-06-12T20:17:09.291Z,11.80
2018-06-12T20:19:38.412Z,11.00
2018-06-12T20:22:07.329Z,10.10
2018-06-12T20:24:36.380Z,9.43
2018-06-12T20:27:05.548Z,9.25
2018-06-12T20:29:34.442Z,9.15
2018-06-12T20:32:03.407Z,8.30
2018-06-12T20:34:32.490Z,7.65
2018-06-12T20:37:02.203Z,7.33
2018-06-12T20:39:31.105Z,6.92
2018-06-12T20:42:00.016Z,7.22
2018-06-12T20:44:28.907Z,6.65
2018-06-12T20:46:57.809Z,6.60
2018-06-12T20:49:26.700Z,6.53
2018-06-12T20:51:55.594Z,6.58
2018-06-12T20:54:24.562Z,5.35
2018-06-12T20:56:53.550Z,4.70
2018-06-12T20:59:22.450Z,4.58
2018-06-12T21:01:51.358Z,4.50
2018-06-12T21:04:20.234Z,4.58
2018-06-12T21:06:49.250Z,4.37
2018-06-12T21:09:18.388Z,4.90
2018-06-12T21:11:47.020Z,4.20
2018-06-12T21:14:15.888Z,4.85
2018-06-12T21:16:44.870Z,5.05
2018-06-12T21:19:13.754Z,4.30
2018-06-12T21:21:42.685Z,5.10
2018-06-12T21:24:11.570Z,4.10
2018-06-12T21:26:40.512Z,4.42
2018-06-12T21:29:09.442Z,4.10
2018-06-12T21:31:38.440Z,4.97
2018-06-12T21:34:08.366Z,3.95
2018-06-12T21:36:37.307Z,4.70
2018-06-12T21:39:06.913Z,4.45
2018-06-12T21:41:36.053Z,4.53
2018-06-12T21:44:04.940Z,3.83
2018-06-12T21:46:33.907Z,4.65
2018-06-12T21:49:02.831Z,4.00
2018-06-12T21:51:31.769Z,4.90
2018-06-12T21:54:00.678Z,4.45
2018-06-12T21:56:29.575Z,4.15
2018-06-12T21:58:58.498Z,4.78
2018-06-12T22:01:27.490Z,5.10
2018-06-12T22:03:56.387Z,5.08
2018-06-12T22:06:25.367Z,4.30
2018-06-12T22:08:54.318Z,5.20
2018-06-12T22:11:23.223Z,3.98
2018-06-12T22:13:52.135Z,4.33
2018-06-12T22:16:22.323Z,4.80
2018-06-12T22:18:51.555Z,4.40
2018-06-12T22:21:20.534Z,6.42
2018-06-12T22:23:49.549Z,4.05
2018-06-12T22:26:18.414Z,4.30
2018-06-12T22:28:47.302Z,4.25
2018-06-12T22:31:17.111Z,5.00
2018-06-12T22:33:46.447Z,4.30
2018-06-12T22:36:15.339Z,4.40
2018-06-12T22:38:44.246Z,4.50
2018-06-12T22:41:13.134Z,4.00
2018-06-12T22:43:42.023Z,4.53
2018-06-12T22:46:10.906Z,4.00
2018-06-12T22:48:39.811Z,4.33
2018-06-12T22:51:08.722Z,4.62
2018-06-12T22:53:37.685Z,4.80
2018-06-12T22:56:06.666Z,4.72
2018-06-12T22:58:35.726Z,5.15
2018-06-12T23:01:04.670Z,4.92
2018-06-12T23:03:33.600Z,4.62
2018-06-12T23:06:02.498Z,5.37
2018-06-12T23:08:31.420Z,5.58
2018-06-12T23:11:00.359Z,4.42
2018-06-12T23:13:29.251Z,5.33
2018-06-12T23:15:58.188Z,6.30
2018-06-12T23:18:27.078Z,5.47
2018-06-12T23:22:07.867Z,5.50
2018-06-12T23:24:36.779Z,5.40
2018-06-12T23:27:05.825Z,5.45
2018-06-12T23:29:34.715Z,6.40
2018-06-12T23:32:03.626Z,5.55
2018-06-12T23:34:32.544Z,5.72
2018-06-12T23:37:01.426Z,5.92
2018-06-12T23:39:30.392Z,5.90
2018-06-12T23:41:59.221Z,5.15
2018-06-12T23:44:28.123Z,5.53
2018-06-12T23:46:57.018Z,5.00
2018-06-12T23:49:25.934Z,5.15
2018-06-12T23:51:54.534Z,5.40
2018-06-12T23:54:23.354Z,4.97
2018-06-12T23:56:52.270Z,4.80
2018-06-12T23:59:21.162Z,5.20
